Terminal Aerodrome Forecast
Issued by NWS

Home | Current Version | Previous Version | Graphics & Text | Print | Product List | Glossary Off
Versions: 1 2 3 4 5 6 7 8 9 10 11 12 13 14 15 16 17 18

773
FTUS43 KIWX 290528
TAFSBN
TAF
KSBN 290528Z 2906/3006 09007KT P6SM OVC015
     FM290900 12003KT 5SM BR OVC008
     FM291500 04005KT P6SM OVC015
     FM291800 02006KT P6SM BKN025=

USA.gov is the U.S. government's official web portal to all federal, state and local government web resources and services.